This demonstration page uses our WeatherBlox Daily Observations layout. Learn more.

Hourly Observations for February 12, 2017

Temp ( °F °C ) Dew Point ( °F °C ) Humidity (%) Winds ( mph kmh ) Pressure ( in mb ) Visibility ( mi km ) Precip ( " mm )
12:54 am 00:54 Cloudy 44 6.7 37 2.8 76 76 NNW 14 22 30.22 1024 10 16.0934 0 0
1:54 am 01:54 Clear 43 6.1 37 2.8 80 80 NNW 17 28 30.26 1025 10 16.0934 0 0
2:54 am 02:54 Clear 41 5 33 0.6 73 73 NNW 10 17 30.29 1026 10 16.0934 0 0
3:54 am 03:54 Clear 39 3.9 32 0 76 76 NW 10 17 30.33 1027 10 16.0934 0 0
4:54 am 04:54 Clear 38 3.3 29 -1.7 70 70 NNW 15 24 30.37 1028 10 16.0934 0 0
5:54 am 05:54 Clear 36 2.2 29 -1.7 76 76 NNW 13 20 30.4 1029 10 16.0934 0 0
6:54 am 06:54 Clear 35 1.7 28 -2.2 76 76 NNW 14 22 30.43 1031 10 16.0934 0 0
7:54 am 07:54 Sunny 34 1.1 26 -3.3 73 73 NNW 14 22 30.47 1032 10 16.0934 0 0
8:54 am 08:54 Sunny 37 2.8 26 -3.3 65 65 NNW 14 22 30.51 1033 10 16.0934 0 0
9:54 am 09:54 Sunny 39 3.9 25 -3.9 57 57 NNW 17 28 30.53 1034 10 16.0934 0 0
10:54 am 10:54 Sunny 43 6.1 22 -5.6 43 43 NNW 13 20 30.55 1035 10 16.0934 0 0
11:54 am 11:54 Sunny 45 7.2 21 -6.1 39 39 NW 13 20 30.57 1035 10 16.0934 0 0
12:54 pm 12:54 Sunny 47 8.3 19 -7.2 33 33 NNW 13 20 30.55 1035 10 16.0934 0 0
1:54 pm 13:54 Sunny 50 10 15 -9.4 25 25 NNW 15 24 30.53 1034 10 16.0934 0 0
2:54 pm 14:54 Sunny 51 10.6 12 -11.1 21 21 NNW 12 19 30.51 1033 10 16.0934 0 0
3:54 pm 15:54 Sunny 51 10.6 9 -12.8 18 18 N 14 22 30.51 1033 10 16.0934 0 0
4:54 pm 16:54 Sunny 49 9.4 11 -11.7 21 21 NNW 9 15 30.51 1033 10 16.0934 0 0
5:54 pm 17:54 Sunny 45 7.2 12 -11.1 26 26 NW 3 6 30.5 1033 10 16.0934 0 0
6:54 pm 18:54 Clear 31 -0.6 14 -10 49 49 Calm 30.51 1033 10 16.0934 0 0
7:54 pm 19:54 Clear 33 0.6 17 -8.3 52 52 Calm 30.5 1033 10 16.0934 0 0
8:54 pm 20:54 Clear 32 0 16 -8.9 52 52 Calm 30.5 1033 10 16.0934 0 0
9:54 pm 21:54 Clear 24 -4.4 15 -9.4 68 68 Calm 30.5 1033 10 16.0934 0 0
10:54 pm 22:54 Clear 23 -5 16 -8.9 74 74 Calm 30.49 1032 10 16.0934 0 0
11:54 pm 23:54 Clear 24 -4.4 17 -8.3 75 75 Calm 30.47 1032 10 16.0934 0 0

Powered by AerisWeather